sensor_id;sensor_type;location;lat;lon;timestamp;pressure;altitude;pressure_sealevel;temperature;humidity
27144;BME280;14672;50.250;8.312;2023-05-29T00:00:25;99076.19;;;17.39;54.06
27144;BME280;14672;50.250;8.312;2023-05-29T00:02:52;99079.28;;;17.21;54.85
27144;BME280;14672;50.250;8.312;2023-05-29T00:05:17;99079.59;;;17.23;54.55
27144;BME280;14672;50.250;8.312;2023-05-29T00:07:44;99058.59;;;17.17;54.85
27144;BME280;14672;50.250;8.312;2023-05-29T00:10:11;99080.28;;;17.18;54.25
27144;BME280;14672;50.250;8.312;2023-05-29T00:12:38;99066.72;;;17.18;54.34
27144;BME280;14672;50.250;8.312;2023-05-29T00:15:05;99068.22;;;17.14;53.76
27144;BME280;14672;50.250;8.312;2023-05-29T00:17:31;99063.31;;;17.00;54.66
27144;BME280;14672;50.250;8.312;2023-05-29T00:19:58;99052.81;;;17.11;54.47
27144;BME280;14672;50.250;8.312;2023-05-29T00:22:24;99066.72;;;17.18;54.13
27144;BME280;14672;50.250;8.312;2023-05-29T00:24:51;99072.53;;;17.04;54.41
27144;BME280;14672;50.250;8.312;2023-05-29T00:27:17;99043.22;;;17.00;54.64
27144;BME280;14672;50.250;8.312;2023-05-29T00:29:43;99060.03;;;17.07;54.18
27144;BME280;14672;50.250;8.312;2023-05-29T00:32:09;99061.25;;;16.85;54.22
27144;BME280;14672;50.250;8.312;2023-05-29T00:34:35;99066.78;;;16.89;54.39
27144;BME280;14672;50.250;8.312;2023-05-29T00:37:01;99067.19;;;16.82;54.62
27144;BME280;14672;50.250;8.312;2023-05-29T00:39:27;99066.22;;;16.70;54.58
27144;BME280;14672;50.250;8.312;2023-05-29T00:41:53;99058.81;;;16.78;54.70
27144;BME280;14672;50.250;8.312;2023-05-29T00:44:19;99065.84;;;16.63;55.11
27144;BME280;14672;50.250;8.312;2023-05-29T00:46:52;99066.91;;;16.65;55.35
27144;BME280;14672;50.250;8.312;2023-05-29T00:49:20;99066.63;;;16.63;54.95
27144;BME280;14672;50.250;8.312;2023-05-29T00:51:48;99067.91;;;16.62;55.02
27144;BME280;14672;50.250;8.312;2023-05-29T00:54:22;99075.94;;;16.58;55.73
27144;BME280;14672;50.250;8.312;2023-05-29T00:56:48;99078.56;;;16.47;55.17
27144;BME280;14672;50.250;8.312;2023-05-29T00:59:15;99074.59;;;16.44;55.49
27144;BME280;14672;50.250;8.312;2023-05-29T01:01:42;99080.25;;;16.39;55.41
27144;BME280;14672;50.250;8.312;2023-05-29T01:04:10;99071.53;;;16.19;55.63
27144;BME280;14672;50.250;8.312;2023-05-29T01:06:39;99071.06;;;16.35;55.26
27144;BME280;14672;50.250;8.312;2023-05-29T01:09:05;99073.13;;;16.34;55.85
27144;BME280;14672;50.250;8.312;2023-05-29T01:11:52;99075.88;;;16.29;55.58
27144;BME280;14672;50.250;8.312;2023-05-29T01:15:25;99082.31;;;16.24;55.67
27144;BME280;14672;50.250;8.312;2023-05-29T01:17:45;99084.53;;;15.90;56.95
27144;BME280;14672;50.250;8.312;2023-05-29T01:26:20;99091.47;;;15.98;56.76
27144;BME280;14672;50.250;8.312;2023-05-29T01:28:53;99090.19;;;16.00;55.96
27144;BME280;14672;50.250;8.312;2023-05-29T01:31:25;99094.19;;;15.93;56.23
27144;BME280;14672;50.250;8.312;2023-05-29T01:33:56;99095.38;;;15.86;56.12
27144;BME280;14672;50.250;8.312;2023-05-29T01:36:23;99092.56;;;15.77;56.11
27144;BME280;14672;50.250;8.312;2023-05-29T01:38:51;99091.63;;;15.80;56.07
27144;BME280;14672;50.250;8.312;2023-05-29T01:41:20;99081.50;;;15.70;56.16
27144;BME280;14672;50.250;8.312;2023-05-29T01:43:48;99087.84;;;15.74;56.06
27144;BME280;14672;50.250;8.312;2023-05-29T01:46:15;99097.88;;;15.70;55.88
27144;BME280;14672;50.250;8.312;2023-05-29T01:48:43;99093.53;;;15.60;56.34
27144;BME280;14672;50.250;8.312;2023-05-29T01:51:10;99088.69;;;15.66;56.28
27144;BME280;14672;50.250;8.312;2023-05-29T01:53:41;99083.72;;;15.52;56.66
27144;BME280;14672;50.250;8.312;2023-05-29T01:56:08;99082.44;;;15.53;56.21
27144;BME280;14672;50.250;8.312;2023-05-29T01:58:38;99084.19;;;15.50;55.88
27144;BME280;14672;50.250;8.312;2023-05-29T02:01:10;99081.19;;;15.44;56.40
27144;BME280;14672;50.250;8.312;2023-05-29T02:03:35;99074.47;;;15.47;56.57
27144;BME280;14672;50.250;8.312;2023-05-29T02:06:01;99079.16;;;15.36;56.82
27144;BME280;14672;50.250;8.312;2023-05-29T02:08:27;99081.09;;;15.30;56.67
27144;BME280;14672;50.250;8.312;2023-05-29T02:10:53;99076.72;;;15.20;57.21
27144;BME280;14672;50.250;8.312;2023-05-29T02:13:19;99081.28;;;15.26;56.81
27144;BME280;14672;50.250;8.312;2023-05-29T02:15:46;99083.25;;;15.20;56.78
27144;BME280;14672;50.250;8.312;2023-05-29T02:18:14;99078.28;;;15.21;56.37
27144;BME280;14672;50.250;8.312;2023-05-29T02:20:41;99076.28;;;15.12;56.74
27144;BME280;14672;50.250;8.312;2023-05-29T02:23:10;99082.03;;;15.03;57.01
27144;BME280;14672;50.250;8.312;2023-05-29T02:25:36;99088.41;;;14.98;57.19
27144;BME280;14672;50.250;8.312;2023-05-29T02:28:02;99083.19;;;14.96;57.56
27144;BME280;14672;50.250;8.312;2023-05-29T02:30:30;99082.34;;;15.05;57.81
27144;BME280;14672;50.250;8.312;2023-05-29T02:32:56;99085.09;;;14.99;57.25
27144;BME280;14672;50.250;8.312;2023-05-29T02:35:22;99085.69;;;15.03;57.44
27144;BME280;14672;50.250;8.312;2023-05-29T02:37:52;99076.97;;;14.98;57.50
27144;BME280;14672;50.250;8.312;2023-05-29T02:40:18;99076.97;;;14.98;57.29
27144;BME280;14672;50.250;8.312;2023-05-29T02:42:47;99074.81;;;14.84;57.77
27144;BME280;14672;50.250;8.312;2023-05-29T02:45:13;99079.94;;;14.71;58.19
27144;BME280;14672;50.250;8.312;2023-05-29T02:47:39;99090.56;;;14.79;57.97
27144;BME280;14672;50.250;8.312;2023-05-29T02:50:05;99080.75;;;14.71;57.89
27144;BME280;14672;50.250;8.312;2023-05-29T02:52:32;99082.81;;;14.71;57.75
27144;BME280;14672;50.250;8.312;2023-05-29T02:54:58;99083.28;;;14.69;57.81
27144;BME280;14672;50.250;8.312;2023-05-29T02:57:24;99091.09;;;14.69;58.03
27144;BME280;14672;50.250;8.312;2023-05-29T02:59:50;99090.66;;;14.52;58.91
27144;BME280;14672;50.250;8.312;2023-05-29T03:02:17;99097.13;;;14.62;57.99
27144;BME280;14672;50.250;8.312;2023-05-29T03:04:44;99097.47;;;14.64;58.04
27144;BME280;14672;50.250;8.312;2023-05-29T03:07:10;99102.72;;;14.56;58.10
27144;BME280;14672;50.250;8.312;2023-05-29T03:09:36;99104.63;;;14.50;58.05
27144;BME280;14672;50.250;8.312;2023-05-29T03:12:02;99098.13;;;14.49;58.10
27144;BME280;14672;50.250;8.312;2023-05-29T03:14:28;99102.44;;;14.45;58.40
27144;BME280;14672;50.250;8.312;2023-05-29T03:16:54;99112.91;;;14.48;57.82
27144;BME280;14672;50.250;8.312;2023-05-29T03:19:20;99112.63;;;14.37;58.57
27144;BME280;14672;50.250;8.312;2023-05-29T03:21:46;99112.13;;;14.38;59.04
27144;BME280;14672;50.250;8.312;2023-05-29T03:24:12;99110.53;;;14.37;58.84
27144;BME280;14672;50.250;8.312;2023-05-29T03:26:41;99117.66;;;14.42;58.14
27144;BME280;14672;50.250;8.312;2023-05-29T03:29:07;99117.38;;;14.40;59.00
27144;BME280;14672;50.250;8.312;2023-05-29T03:31:33;99104.34;;;14.39;58.44
27144;BME280;14672;50.250;8.312;2023-05-29T03:33:59;99104.34;;;14.39;58.64
27144;BME280;14672;50.250;8.312;2023-05-29T03:36:25;99108.75;;;14.31;58.93
27144;BME280;14672;50.250;8.312;2023-05-29T03:38:52;99099.91;;;14.29;58.12
27144;BME280;14672;50.250;8.312;2023-05-29T03:41:18;99111.94;;;14.33;58.75
27144;BME280;14672;50.250;8.312;2023-05-29T03:43:43;99113.22;;;14.32;58.77
27144;BME280;14672;50.250;8.312;2023-05-29T03:46:09;99114.34;;;14.43;58.80
27144;BME280;14672;50.250;8.312;2023-05-29T03:48:35;99113.53;;;14.34;59.03
27144;BME280;14672;50.250;8.312;2023-05-29T03:51:01;99118.78;;;14.26;59.11
27144;BME280;14672;50.250;8.312;2023-05-29T03:53:26;99114.81;;;14.24;59.16
27144;BME280;14672;50.250;8.312;2023-05-29T03:55:52;99113.22;;;14.23;59.12
27144;BME280;14672;50.250;8.312;2023-05-29T03:58:18;99117.03;;;14.10;59.50
27144;BME280;14672;50.250;8.312;2023-05-29T04:00:44;99115.47;;;14.00;59.28
27144;BME280;14672;50.250;8.312;2023-05-29T04:03:10;99118.94;;;14.13;58.82
27144;BME280;14672;50.250;8.312;2023-05-29T04:05:36;99132.91;;;14.11;58.57
27144;BME280;14672;50.250;8.312;2023-05-29T04:08:02;99135.44;;;14.09;58.86
27144;BME280;14672;50.250;8.312;2023-05-29T04:10:30;99137.69;;;14.15;58.70
27144;BME280;14672;50.250;8.312;2023-05-29T04:13:02;99153.22;;;14.23;58.96
27144;BME280;14672;50.250;8.312;2023-05-29T04:15:28;99154.66;;;14.18;59.17
27144;BME280;14672;50.250;8.312;2023-05-29T04:17:54;99162.75;;;14.20;59.11
27144;BME280;14672;50.250;8.312;2023-05-29T04:20:21;99162.09;;;14.34;59.15
27144;BME280;14672;50.250;8.312;2023-05-29T04:22:46;99161.81;;;14.23;59.60
27144;BME280;14672;50.250;8.312;2023-05-29T04:25:12;99163.53;;;14.29;60.05
27144;BME280;14672;50.250;8.312;2023-05-29T04:27:38;99174.69;;;14.36;60.20
27144;BME280;14672;50.250;8.312;2023-05-29T04:30:08;99165.78;;;14.43;60.51
27144;BME280;14672;50.250;8.312;2023-05-29T04:32:34;99177.06;;;14.47;61.36
27144;BME280;14672;50.250;8.312;2023-05-29T04:35:00;99189.41;;;14.71;62.08
27144;BME280;14672;50.250;8.312;2023-05-29T04:37:29;99184.00;;;14.82;61.88
27144;BME280;14672;50.250;8.312;2023-05-29T04:39:58;99187.91;;;15.03;61.11
27144;BME280;14672;50.250;8.312;2023-05-29T04:42:24;99188.34;;;15.20;61.54
27144;BME280;14672;50.250;8.312;2023-05-29T04:44:53;99184.16;;;15.30;61.42
27144;BME280;14672;50.250;8.312;2023-05-29T04:47:19;99186.72;;;15.28;61.39
27144;BME280;14672;50.250;8.312;2023-05-29T04:49:45;99198.72;;;15.41;61.42
27144;BME280;14672;50.250;8.312;2023-05-29T04:52:15;99201.09;;;15.52;60.75
27144;BME280;14672;50.250;8.312;2023-05-29T04:54:44;99209.03;;;15.57;60.82
27144;BME280;14672;50.250;8.312;2023-05-29T04:57:10;99211.38;;;15.67;60.20
27144;BME280;14672;50.250;8.312;2023-05-29T04:59:36;99215.16;;;15.73;60.50
27144;BME280;14672;50.250;8.312;2023-05-29T05:02:03;99215.84;;;15.92;60.35
27144;BME280;14672;50.250;8.312;2023-05-29T05:04:28;99216.56;;;16.02;60.77
27144;BME280;14672;50.250;8.312;2023-05-29T05:06:54;99218.22;;;16.17;61.10
27144;BME280;14672;50.250;8.312;2023-05-29T05:09:20;99220.81;;;16.30;61.40
27144;BME280;14672;50.250;8.312;2023-05-29T05:11:46;99223.63;;;16.39;61.66
27144;BME280;14672;50.250;8.312;2023-05-29T05:14:11;99224.13;;;16.52;61.32
27144;BME280;14672;50.250;8.312;2023-05-29T05:16:37;99212.34;;;16.59;61.68
27144;BME280;14672;50.250;8.312;2023-05-29T05:19:03;99219.38;;;16.73;60.93
27144;BME280;14672;50.250;8.312;2023-05-29T05:21:29;99220.16;;;16.88;60.95
27144;BME280;14672;50.250;8.312;2023-05-29T05:23:57;99218.31;;;17.00;60.35
27144;BME280;14672;50.250;8.312;2023-05-29T05:26:22;99223.88;;;17.03;60.65
27144;BME280;14672;50.250;8.312;2023-05-29T05:28:48;99220.09;;;17.12;60.91
27144;BME280;14672;50.250;8.312;2023-05-29T05:31:14;99215.63;;;17.25;60.05
27144;BME280;14672;50.250;8.312;2023-05-29T05:33:40;99215.81;;;17.36;59.72
27144;BME280;14672;50.250;8.312;2023-05-29T05:36:06;99215.00;;;17.36;59.71
27144;BME280;14672;50.250;8.312;2023-05-29T05:38:35;99212.72;;;17.55;58.88
27144;BME280;14672;50.250;8.312;2023-05-29T05:41:00;99212.03;;;17.60;58.84
27144;BME280;14672;50.250;8.312;2023-05-29T05:43:26;99211.44;;;17.70;59.04
27144;BME280;14672;50.250;8.312;2023-05-29T05:45:55;99205.47;;;17.74;58.86
27144;BME280;14672;50.250;8.312;2023-05-29T05:48:21;99198.28;;;17.84;58.21
27144;BME280;14672;50.250;8.312;2023-05-29T05:50:47;99204.13;;;17.90;58.22
27144;BME280;14672;50.250;8.312;2023-05-29T05:53:12;99197.47;;;17.98;58.14
27144;BME280;14672;50.250;8.312;2023-05-29T05:55:38;99205.16;;;18.07;57.84
27144;BME280;14672;50.250;8.312;2023-05-29T05:58:04;99204.72;;;18.14;57.53
27144;BME280;14672;50.250;8.312;2023-05-29T06:00:30;99193.59;;;18.21;57.82
27144;BME280;14672;50.250;8.312;2023-05-29T06:02:55;99191.06;;;18.29;57.02
27144;BME280;14672;50.250;8.312;2023-05-29T06:05:21;99190.41;;;18.40;56.79
27144;BME280;14672;50.250;8.312;2023-05-29T06:07:47;99198.31;;;18.45;56.75
27144;BME280;14672;50.250;8.312;2023-05-29T06:10:12;99200.28;;;18.53;56.37
27144;BME280;14672;50.250;8.312;2023-05-29T06:12:38;99204.78;;;18.60;55.91
27144;BME280;14672;50.250;8.312;2023-05-29T06:15:05;99204.06;;;18.65;55.89
27144;BME280;14672;50.250;8.312;2023-05-29T06:17:31;99206.50;;;18.72;55.26
27144;BME280;14672;50.250;8.312;2023-05-29T06:19:57;99206.56;;;18.77;55.32
27144;BME280;14672;50.250;8.312;2023-05-29T06:22:25;99214.81;;;18.90;54.93
27144;BME280;14672;50.250;8.312;2023-05-29T06:24:51;99218.03;;;18.98;54.15
27144;BME280;14672;50.250;8.312;2023-05-29T06:27:17;99209.44;;;19.03;54.60
27144;BME280;14672;50.250;8.312;2023-05-29T06:29:44;99215.03;;;19.12;54.40
27144;BME280;14672;50.250;8.312;2023-05-29T06:32:10;99210.63;;;19.17;54.70
27144;BME280;14672;50.250;8.312;2023-05-29T06:34:36;99207.00;;;19.22;54.20
27144;BME280;14672;50.250;8.312;2023-05-29T06:37:02;99212.81;;;19.28;54.35
27144;BME280;14672;50.250;8.312;2023-05-29T06:39:28;99207.16;;;19.39;53.93
27144;BME280;14672;50.250;8.312;2023-05-29T06:41:53;99210.41;;;19.46;53.06
27144;BME280;14672;50.250;8.312;2023-05-29T06:44:19;99210.16;;;19.50;53.44
27144;BME280;14672;50.250;8.312;2023-05-29T06:46:45;99200.00;;;19.60;53.25
27144;BME280;14672;50.250;8.312;2023-05-29T06:49:11;99201.66;;;19.66;53.09
27144;BME280;14672;50.250;8.312;2023-05-29T06:51:36;99206.69;;;19.77;53.17
27144;BME280;14672;50.250;8.312;2023-05-29T06:54:02;99202.78;;;19.80;53.33
27144;BME280;14672;50.250;8.312;2023-05-29T06:56:28;99204.94;;;19.91;53.12
27144;BME280;14672;50.250;8.312;2023-05-29T06:58:55;99203.88;;;19.88;51.91
27144;BME280;14672;50.250;8.312;2023-05-29T07:01:22;99201.84;;;20.00;51.43
27144;BME280;14672;50.250;8.312;2023-05-29T07:03:52;99200.03;;;20.02;51.35
27144;BME280;14672;50.250;8.312;2023-05-29T07:06:19;99207.13;;;20.07;50.57
27144;BME280;14672;50.250;8.312;2023-05-29T07:08:45;99206.66;;;20.14;50.44
27144;BME280;14672;50.250;8.312;2023-05-29T07:11:11;99216.13;;;20.20;49.47
27144;BME280;14672;50.250;8.312;2023-05-29T07:13:36;99204.34;;;20.24;49.77
27144;BME280;14672;50.250;8.312;2023-05-29T07:16:02;99220.16;;;20.34;49.18
27144;BME280;14672;50.250;8.312;2023-05-29T07:18:28;99210.72;;;20.39;50.06
27144;BME280;14672;50.250;8.312;2023-05-29T07:20:56;99217.31;;;20.50;50.46
27144;BME280;14672;50.250;8.312;2023-05-29T07:23:22;99224.97;;;20.53;49.52
27144;BME280;14672;50.250;8.312;2023-05-29T07:25:48;99226.06;;;20.61;49.61
27144;BME280;14672;50.250;8.312;2023-05-29T07:28:13;99223.44;;;20.69;50.53
27144;BME280;14672;50.250;8.312;2023-05-29T07:30:39;99231.34;;;20.80;51.75
27144;BME280;14672;50.250;8.312;2023-05-29T07:33:05;99217.44;;;20.84;51.69
27144;BME280;14672;50.250;8.312;2023-05-29T07:35:31;99212.75;;;20.92;51.57
27144;BME280;14672;50.250;8.312;2023-05-29T07:37:59;99209.59;;;20.95;51.23
27144;BME280;14672;50.250;8.312;2023-05-29T07:40:25;99220.13;;;21.04;51.03
27144;BME280;14672;50.250;8.312;2023-05-29T07:42:51;99213.03;;;21.05;50.85
27144;BME280;14672;50.250;8.312;2023-05-29T07:45:17;99222.00;;;21.13;50.24
27144;BME280;14672;50.250;8.312;2023-05-29T07:47:43;99215.69;;;21.14;50.15
27144;BME280;14672;50.250;8.312;2023-05-29T07:50:13;99219.63;;;21.22;50.21
27144;BME280;14672;50.250;8.312;2023-05-29T07:52:39;99220.69;;;21.30;49.98
27144;BME280;14672;50.250;8.312;2023-05-29T07:55:08;99225.19;;;21.37;49.75
27144;BME280;14672;50.250;8.312;2023-05-29T07:57:33;99220.19;;;21.43;49.43
27144;BME280;14672;50.250;8.312;2023-05-29T07:59:59;99223.09;;;21.48;49.26
27144;BME280;14672;50.250;8.312;2023-05-29T08:02:25;99221.78;;;21.49;49.54
27144;BME280;14672;50.250;8.312;2023-05-29T08:04:52;99218.06;;;21.54;48.47
27144;BME280;14672;50.250;8.312;2023-05-29T08:07:17;99219.69;;;21.61;49.11
27144;BME280;14672;50.250;8.312;2023-05-29T08:09:43;99218.09;;;21.66;49.12
27144;BME280;14672;50.250;8.312;2023-05-29T08:12:09;99218.88;;;21.72;48.41
27144;BME280;14672;50.250;8.312;2023-05-29T08:14:35;99218.31;;;21.79;48.37
27144;BME280;14672;50.250;8.312;2023-05-29T08:17:01;99213.34;;;21.85;48.03
27144;BME280;14672;50.250;8.312;2023-05-29T08:19:26;99216.75;;;21.89;47.78
27144;BME280;14672;50.250;8.312;2023-05-29T08:21:52;99215.44;;;21.95;48.15
27144;BME280;14672;50.250;8.312;2023-05-29T08:24:18;99212.53;;;22.07;48.42
27144;BME280;14672;50.250;8.312;2023-05-29T08:26:45;99215.41;;;22.12;48.07
27144;BME280;14672;50.250;8.312;2023-05-29T08:29:11;99209.06;;;22.19;48.41
27144;BME280;14672;50.250;8.312;2023-05-29T08:31:36;99210.66;;;22.15;47.81
27144;BME280;14672;50.250;8.312;2023-05-29T08:34:03;99203.78;;;22.23;47.45
27144;BME280;14672;50.250;8.312;2023-05-29T08:36:28;99204.03;;;22.36;46.63
27144;BME280;14672;50.250;8.312;2023-05-29T08:38:54;99203.44;;;22.49;46.79
27144;BME280;14672;50.250;8.312;2023-05-29T08:44:22;99199.13;;;22.67;46.63
27144;BME280;14672;50.250;8.312;2023-05-29T08:46:55;99209.09;;;22.82;47.49
27144;BME280;14672;50.250;8.312;2023-05-29T08:49:22;99200.66;;;22.84;45.15
27144;BME280;14672;50.250;8.312;2023-05-29T08:51:54;99202.78;;;22.84;44.13
27144;BME280;14672;50.250;8.312;2023-05-29T08:54:23;99201.66;;;22.92;44.08
27144;BME280;14672;50.250;8.312;2023-05-29T08:56:52;99210.38;;;22.92;43.85
27144;BME280;14672;50.250;8.312;2023-05-29T08:59:19;99206.09;;;22.99;44.47
27144;BME280;14672;50.250;8.312;2023-05-29T09:01:45;99203.94;;;23.05;44.94
27144;BME280;14672;50.250;8.312;2023-05-29T09:04:11;99202.88;;;23.08;43.74
27144;BME280;14672;50.250;8.312;2023-05-29T09:06:37;99200.72;;;23.14;44.76
27144;BME280;14672;50.250;8.312;2023-05-29T09:09:06;99199.09;;;23.24;44.82
27144;BME280;14672;50.250;8.312;2023-05-29T09:11:32;99205.38;;;23.28;43.60
27144;BME280;14672;50.250;8.312;2023-05-29T09:14:00;99202.69;;;23.36;43.20
27144;BME280;14672;50.250;8.312;2023-05-29T09:16:28;99193.69;;;23.39;43.49
27144;BME280;14672;50.250;8.312;2023-05-29T09:19:05;99197.59;;;23.48;43.56
27144;BME280;14672;50.250;8.312;2023-05-29T09:21:34;99198.13;;;23.46;44.21
27144;BME280;14672;50.250;8.312;2023-05-29T09:24:04;99198.59;;;23.56;43.88
27144;BME280;14672;50.250;8.312;2023-05-29T09:26:34;99202.78;;;23.60;44.53
27144;BME280;14672;50.250;8.312;2023-05-29T09:29:00;99208.50;;;23.66;44.41
27144;BME280;14672;50.250;8.312;2023-05-29T09:31:26;99213.22;;;23.69;44.87
27144;BME280;14672;50.250;8.312;2023-05-29T09:33:52;99209.50;;;23.74;44.45
27144;BME280;14672;50.250;8.312;2023-05-29T09:36:22;99209.75;;;23.76;45.25
27144;BME280;14672;50.250;8.312;2023-05-29T09:38:49;99215.25;;;23.79;43.46
27144;BME280;14672;50.250;8.312;2023-05-29T09:41:24;99214.66;;;23.86;43.14
27144;BME280;14672;50.250;8.312;2023-05-29T09:43:50;99208.50;;;23.96;43.72
27144;BME280;14672;50.250;8.312;2023-05-29T09:46:16;99200.59;;;23.96;43.19
27144;BME280;14672;50.250;8.312;2023-05-29T09:48:44;99200.59;;;23.96;42.63
27144;BME280;14672;50.250;8.312;2023-05-29T09:51:21;99198.69;;;23.99;42.89
27144;BME280;14672;50.250;8.312;2023-05-29T09:53:48;99194.66;;;24.07;42.45
27144;BME280;14672;50.250;8.312;2023-05-29T09:56:16;99206.16;;;24.18;42.97
27144;BME280;14672;50.250;8.312;2023-05-29T09:58:44;99202.16;;;24.21;42.44
27144;BME280;14672;50.250;8.312;2023-05-29T10:01:13;99190.25;;;24.25;42.13
27144;BME280;14672;50.250;8.312;2023-05-29T10:03:42;99200.72;;;24.33;41.75
27144;BME280;14672;50.250;8.312;2023-05-29T10:06:10;99194.38;;;24.35;41.05
27144;BME280;14672;50.250;8.312;2023-05-29T10:08:45;99188.94;;;24.45;42.73
27144;BME280;14672;50.250;8.312;2023-05-29T10:14:35;99208.75;;;24.65;42.30
27144;BME280;14672;50.250;8.312;2023-05-29T10:17:04;99209.66;;;24.78;42.99
27144;BME280;14672;50.250;8.312;2023-05-29T10:19:33;99208.53;;;24.82;43.09
27144;BME280;14672;50.250;8.312;2023-05-29T10:22:02;99212.91;;;24.94;42.03
27144;BME280;14672;50.250;8.312;2023-05-29T10:24:31;99203.84;;;24.97;41.89
27144;BME280;14672;50.250;8.312;2023-05-29T10:26:58;99215.56;;;25.10;40.70
27144;BME280;14672;50.250;8.312;2023-05-29T10:29:58;99204.88;;;25.18;40.41
27144;BME280;14672;50.250;8.312;2023-05-29T10:33:06;99210.75;;;25.32;40.22
27144;BME280;14672;50.250;8.312;2023-05-29T10:38:29;99193.50;;;25.52;40.04
27144;BME280;14672;50.250;8.312;2023-05-29T10:40:55;99196.47;;;25.65;39.07
27144;BME280;14672;50.250;8.312;2023-05-29T10:43:33;99199.50;;;25.73;39.07
27144;BME280;14672;50.250;8.312;2023-05-29T10:46:01;99201.88;;;25.75;38.97
27144;BME280;14672;50.250;8.312;2023-05-29T10:50:56;99196.63;;;25.86;38.21
27144;BME280;14672;50.250;8.312;2023-05-29T10:53:31;99183.19;;;25.96;38.95
27144;BME280;14672;50.250;8.312;2023-05-29T10:56:00;99186.22;;;26.04;38.85
27144;BME280;14672;50.250;8.312;2023-05-29T10:58:27;99193.97;;;26.14;39.23
27144;BME280;14672;50.250;8.312;2023-05-29T11:00:54;99194.44;;;26.18;37.61
27144;BME280;14672;50.250;8.312;2023-05-29T11:03:32;99194.13;;;26.35;37.96
27144;BME280;14672;50.250;8.312;2023-05-29T11:06:06;99201.16;;;26.40;35.83
27144;BME280;14672;50.250;8.312;2023-05-29T11:08:56;99188.53;;;26.50;35.95
27144;BME280;14672;50.250;8.312;2023-05-29T11:13:56;99189.06;;;26.75;36.04
27144;BME280;14672;50.250;8.312;2023-05-29T11:18:52;99179.97;;;26.79;35.79
27144;BME280;14672;50.250;8.312;2023-05-29T11:24:27;99167.03;;;27.00;34.29
27144;BME280;14672;50.250;8.312;2023-05-29T11:26:55;99161.69;;;27.12;33.78
27144;BME280;14672;50.250;8.312;2023-05-29T11:29:28;99161.00;;;27.19;33.58
27144;BME280;14672;50.250;8.312;2023-05-29T11:32:01;99161.84;;;27.27;33.24
27144;BME280;14672;50.250;8.312;2023-05-29T11:34:30;99170.50;;;27.33;32.13
27144;BME280;14672;50.250;8.312;2023-05-29T11:37:01;99155.97;;;27.40;32.05
27144;BME280;14672;50.250;8.312;2023-05-29T11:39:28;99156.56;;;27.39;32.30
27144;BME280;14672;50.250;8.312;2023-05-29T11:41:55;99167.75;;;27.48;32.42
27144;BME280;14672;50.250;8.312;2023-05-29T11:44:24;99154.78;;;27.57;33.72
27144;BME280;14672;50.250;8.312;2023-05-29T11:47:04;99155.28;;;27.68;32.83
27144;BME280;14672;50.250;8.312;2023-05-29T11:49:32;99162.28;;;27.65;32.75
27144;BME280;14672;50.250;8.312;2023-05-29T11:52:10;99151.63;;;27.75;32.67
27144;BME280;14672;50.250;8.312;2023-05-29T11:54:36;99158.97;;;27.89;32.37
27144;BME280;14672;50.250;8.312;2023-05-29T11:57:03;99147.13;;;27.95;32.64
27144;BME280;14672;50.250;8.312;2023-05-29T11:59:34;99151.00;;;28.11;32.96
27144;BME280;14672;50.250;8.312;2023-05-29T12:02:03;99148.25;;;28.13;32.47
27144;BME280;14672;50.250;8.312;2023-05-29T12:04:29;99154.16;;;28.20;31.59
27144;BME280;14672;50.250;8.312;2023-05-29T12:06:55;99163.69;;;28.21;31.84
27144;BME280;14672;50.250;8.312;2023-05-29T12:09:28;99160.81;;;28.28;32.98
27144;BME280;14672;50.250;8.312;2023-05-29T12:12:04;99143.75;;;28.40;33.41
27144;BME280;14672;50.250;8.312;2023-05-29T12:14:32;99145.88;;;28.39;32.45
27144;BME280;14672;50.250;8.312;2023-05-29T12:16:58;99142.28;;;28.54;32.42
27144;BME280;14672;50.250;8.312;2023-05-29T12:19:24;99145.59;;;28.58;33.11
27144;BME280;14672;50.250;8.312;2023-05-29T12:21:50;99136.47;;;28.62;32.50
27144;BME280;14672;50.250;8.312;2023-05-29T12:24:19;99143.50;;;28.66;33.54
27144;BME280;14672;50.250;8.312;2023-05-29T12:26:45;99146.63;;;28.68;33.44
27144;BME280;14672;50.250;8.312;2023-05-29T12:29:13;99139.09;;;28.80;32.90
27144;BME280;14672;50.250;8.312;2023-05-29T12:31:38;99137.34;;;28.77;32.83
27144;BME280;14672;50.250;8.312;2023-05-29T12:34:11;99142.56;;;28.71;33.08
27144;BME280;14672;50.250;8.312;2023-05-29T12:36:41;99146.72;;;28.91;33.37
27144;BME280;14672;50.250;8.312;2023-05-29T12:39:09;99138.78;;;29.07;33.48
27144;BME280;14672;50.250;8.312;2023-05-29T12:41:36;99143.66;;;29.12;32.36
27144;BME280;14672;50.250;8.312;2023-05-29T12:44:04;99146.41;;;29.10;32.72
27144;BME280;14672;50.250;8.312;2023-05-29T12:46:42;99141.72;;;29.14;32.24
27144;BME280;14672;50.250;8.312;2023-05-29T12:49:17;99148.97;;;29.21;32.35
27144;BME280;14672;50.250;8.312;2023-05-29T12:51:46;99140.06;;;29.34;31.68
27144;BME280;14672;50.250;8.312;2023-05-29T12:54:16;99134.78;;;29.40;31.29
27144;BME280;14672;50.250;8.312;2023-05-29T12:56:42;99126.22;;;29.42;31.71
27144;BME280;14672;50.250;8.312;2023-05-29T12:59:09;99129.16;;;29.42;31.83
27144;BME280;14672;50.250;8.312;2023-05-29T13:01:39;99134.00;;;29.47;31.30
27144;BME280;14672;50.250;8.312;2023-05-29T13:04:05;99139.69;;;29.45;31.88
27144;BME280;14672;50.250;8.312;2023-05-29T13:06:35;99132.47;;;29.54;31.63
27144;BME280;14672;50.250;8.312;2023-05-29T13:09:02;99134.22;;;29.49;31.00
27144;BME280;14672;50.250;8.312;2023-05-29T13:11:28;99132.88;;;29.58;31.49
27144;BME280;14672;50.250;8.312;2023-05-29T13:13:54;99121.72;;;29.56;31.50
27144;BME280;14672;50.250;8.312;2023-05-29T13:16:21;99130.50;;;29.71;31.47
27144;BME280;14672;50.250;8.312;2023-05-29T13:18:47;99129.94;;;29.80;31.13
27144;BME280;14672;50.250;8.312;2023-05-29T13:21:12;99120.38;;;29.88;30.85
27144;BME280;14672;50.250;8.312;2023-05-29T13:23:38;99115.06;;;29.78;30.53
27144;BME280;14672;50.250;8.312;2023-05-29T13:26:04;99128.59;;;29.89;31.48
27144;BME280;14672;50.250;8.312;2023-05-29T13:28:31;99125.25;;;29.93;30.79